Location Isle ofWight, ISLE OF WIGHT, UK

ob UISISLE1 251715Z AUTO 07009G14KT CLR 13/M02 A3022 RMK SLPNO 

2017.03.25 1715 UTC
Wind from the ENE (073 degrees) at 10.4 MPH (9 KT) gusting to 16.0 MPH (14 KT)
Visibility    Mile(s)
Sky Conditions  clear
Temperature 55.2 F (13 C)
Dew Point 28.7 F (-2 C)
Relative Humidity 36%
Pressure   30.222 in. Hg (1023 hPa)
Rain  0.00 in.
Daily Rain 0.000 in.

Station Name  Isle of Wight Weather
Longitude, Latitude  -1.271, 50.72
Elevation 45
Station URL http://www.isleofwightweather.co.uk
Software Type WeatherDisplay:10.37R